Time;durP1;ratioP1;P1;durP2;ratioP2;P2;SDS_P1;SDS_P2;PMS_P1;PMS_P2;Temp;Humidity;BMP_temperature;BMP_pressure;BME280_temperature;BME280_humidity;BME280_pressure;Samples;Min_cycle;Max_cycle;Signal;HPM_P1;HPM_P2
2022/06/07 00:01:16;;;;;;;0.80;0.77;;;13.80;98.60;;;;;;5030708;28;20224;-78
2022/06/07 00:03:42;;;;;;;0.73;0.70;;;13.70;98.60;;;;;;5026607;28;20688;-79
2022/06/07 00:06:09;;;;;;;0.70;0.70;;;13.70;98.70;;;;;;5030020;28;20236;-78
2022/06/07 00:08:36;;;;;;;0.77;0.70;;;13.70;98.70;;;;;;5024135;28;20736;-79
2022/06/07 00:11:04;;;;;;;1.17;0.80;;;13.70;98.60;;;;;;5024730;28;20240;-79
2022/06/07 00:13:32;;;;;;;0.70;0.70;;;13.70;98.60;;;;;;5043147;28;20310;-79
2022/06/07 00:15:58;;;;;;;0.80;0.80;;;13.70;98.60;;;;;;5024248;28;20673;-78
2022/06/07 00:18:25;;;;;;;0.97;0.73;;;13.70;98.60;;;;;;5024765;28;20286;-79
2022/06/07 00:20:52;;;;;;;1.27;0.90;;;13.70;98.60;;;;;;5028031;28;20405;-79
2022/06/07 00:23:19;;;;;;;0.90;0.80;;;13.70;98.60;;;;;;5031361;28;20224;-78
2022/06/07 00:25:48;;;;;;;1.53;0.90;;;13.70;98.60;;;;;;5028695;28;20231;-78
2022/06/07 00:28:18;;;;;;;0.93;0.70;;;13.70;98.60;;;;;;5029592;28;20222;-79
2022/06/07 00:30:45;;;;;;;1.17;1.07;;;13.70;98.50;;;;;;5032396;28;20223;-78
2022/06/07 00:33:11;;;;;;;0.93;0.80;;;13.70;98.30;;;;;;5029825;28;20241;-80
2022/06/07 00:35:38;;;;;;;1.10;1.00;;;13.60;98.20;;;;;;5022979;28;20321;-80
2022/06/07 00:38:06;;;;;;;1.97;0.83;;;13.60;98.30;;;;;;5028058;28;20236;-79
2022/06/07 00:40:33;;;;;;;1.43;0.90;;;13.60;98.20;;;;;;5029917;28;20228;-78
2022/06/07 00:42:59;;;;;;;1.53;0.90;;;13.50;98.10;;;;;;5031124;28;20234;-78
2022/06/07 00:45:28;;;;;;;1.37;0.90;;;13.50;98.50;;;;;;5030350;28;20698;-78
2022/06/07 00:47:54;;;;;;;0.97;0.90;;;13.50;98.40;;;;;;5025844;28;20776;-78
2022/06/07 00:50:26;;;;;;;1.50;0.97;;;13.40;98.40;;;;;;5017899;28;20223;-78
2022/06/07 00:52:53;;;;;;;1.10;1.00;;;13.40;98.60;;;;;;5026559;28;20287;-79
2022/06/07 00:55:20;;;;;;;2.40;1.00;;;13.40;98.50;;;;;;5027587;28;20243;-77
2022/06/07 00:57:50;;;;;;;2.07;0.83;;;13.40;98.90;;;;;;5030028;28;20598;-79
2022/06/07 01:00:35;;;;;;;1.00;0.97;;;13.40;98.90;;;;;;5032686;28;20223;-78
2022/06/07 01:03:02;;;;;;;1.40;1.30;;;13.40;99.00;;;;;;5032155;28;20218;-79
2022/06/07 01:05:29;;;;;;;3.07;0.87;;;13.40;99.10;;;;;;5028841;28;20796;-79
2022/06/07 01:10:51;;;;;;;2.50;1.10;;;13.30;99.20;;;;;;5015525;28;20224;-77
2022/06/07 01:13:27;;;;;;;1.10;1.00;;;13.30;99.40;;;;;;5022678;28;20824;-77
2022/06/07 01:16:03;;;;;;;1.00;0.90;;;13.30;99.60;;;;;;5030994;28;20256;-76
2022/06/07 01:18:35;;;;;;;1.43;1.20;;;13.20;99.70;;;;;;5024671;28;20219;-78
2022/06/07 01:21:20;;;;;;;1.73;0.90;;;13.20;99.60;;;;;;5026239;28;20228;-77
2022/06/07 01:23:48;;;;;;;1.00;0.90;;;13.10;99.90;;;;;;5023518;28;20305;-77
2022/06/07 01:26:18;;;;;;;1.27;1.17;;;13.10;99.90;;;;;;5021435;28;20234;-77
2022/06/07 01:28:45;;;;;;;1.73;1.10;;;13.00;99.90;;;;;;5026217;28;20306;-77
2022/06/07 01:31:12;;;;;;;1.73;1.10;;;13.00;99.90;;;;;;5019837;28;20220;-77
2022/06/07 01:33:39;;;;;;;1.10;0.97;;;13.00;99.90;;;;;;5025772;28;20257;-77
2022/06/07 01:36:10;;;;;;;1.20;0.87;;;13.00;99.90;;;;;;5021667;28;20319;-76
2022/06/07 01:38:40;;;;;;;1.10;1.00;;;12.90;99.90;;;;;;5024865;28;20223;-77
2022/06/07 01:43:53;;;;;;;2.00;1.00;;;12.90;99.90;;;;;;5023633;28;20245;-77
2022/06/07 01:46:20;;;;;;;0.97;0.93;;;12.80;99.90;;;;;;5027494;28;20232;-78
2022/06/07 01:48:48;;;;;;;1.37;1.00;;;12.80;99.90;;;;;;5029929;28;20231;-78
2022/06/07 01:51:16;;;;;;;1.00;0.90;;;12.80;99.90;;;;;;5020783;28;20259;-78
2022/06/07 01:53:46;;;;;;;1.23;1.07;;;12.80;99.90;;;;;;5029105;28;20306;-76
2022/06/07 01:56:15;;;;;;;1.03;0.90;;;12.70;99.90;;;;;;5019735;28;20778;-79
2022/06/07 01:58:45;;;;;;;0.90;0.90;;;12.70;99.90;;;;;;5024839;28;20303;-78
2022/06/07 02:01:13;;;;;;;1.23;0.90;;;12.70;99.90;;;;;;5031562;28;20586;-78
2022/06/07 02:03:40;;;;;;;1.10;1.00;;;12.60;99.90;;;;;;5024966;28;20327;-79
2022/06/07 02:06:10;;;;;;;1.40;1.30;;;12.60;99.90;;;;;;5033354;28;20813;-79
2022/06/07 02:08:37;;;;;;;0.97;0.90;;;12.60;99.90;;;;;;5032592;28;20222;-78
2022/06/07 02:11:11;;;;;;;1.00;0.90;;;12.60;99.90;;;;;;5026794;28;20295;-77
2022/06/07 02:13:41;;;;;;;0.90;0.90;;;12.60;99.90;;;;;;5043601;28;20253;-78
2022/06/07 02:16:09;;;;;;;1.67;0.80;;;12.60;99.90;;;;;;5030829;28;20328;-78
2022/06/07 02:18:36;;;;;;;1.10;1.00;;;12.50;99.90;;;;;;5023230;28;20218;-79
2022/06/07 02:21:15;;;;;;;1.20;0.90;;;12.50;99.90;;;;;;5023138;28;20233;-79
2022/06/07 02:23:43;;;;;;;1.63;1.13;;;12.50;99.90;;;;;;5032030;28;20724;-79
2022/06/07 02:26:14;;;;;;;1.40;1.00;;;12.50;99.90;;;;;;5033812;28;20230;-80
2022/06/07 02:28:43;;;;;;;1.07;0.90;;;12.50;99.90;;;;;;5032077;28;20258;-79
2022/06/07 02:31:11;;;;;;;1.57;1.10;;;12.50;99.90;;;;;;5027054;28;20626;-79
2022/06/07 02:33:40;;;;;;;0.90;0.83;;;12.50;99.90;;;;;;5029964;28;20242;-80
2022/06/07 02:36:09;;;;;;;1.20;0.80;;;12.50;99.90;;;;;;5031067;28;20304;-80
2022/06/07 02:38:36;;;;;;;0.97;0.97;;;12.50;99.90;;;;;;5030889;28;20236;-77
2022/06/07 02:41:06;;;;;;;1.50;0.90;;;12.50;99.90;;;;;;5023146;28;20222;-78
2022/06/07 02:43:34;;;;;;;1.03;0.93;;;12.50;99.90;;;;;;5019444;28;20730;-77
2022/06/07 02:46:02;;;;;;;1.30;1.20;;;12.50;99.90;;;;;;5025854;28;20229;-78
2022/06/07 02:48:29;;;;;;;1.40;1.07;;;12.50;99.90;;;;;;5024876;28;20247;-78
2022/06/07 02:50:56;;;;;;;0.97;0.87;;;12.50;99.90;;;;;;5025604;28;20741;-78
2022/06/07 02:53:24;;;;;;;1.00;0.90;;;12.50;99.90;;;;;;5022788;28;20235;-77
2022/06/07 02:55:51;;;;;;;1.20;0.80;;;12.40;99.90;;;;;;5037357;28;20221;-80
2022/06/07 02:58:22;;;;;;;1.10;1.00;;;12.50;99.90;;;;;;5021507;28;20281;-78
2022/06/07 03:00:51;;;;;;;2.40;1.20;;;12.50;99.90;;;;;;5029051;28;20695;-78
2022/06/07 03:03:20;;;;;;;1.27;1.10;;;12.40;99.90;;;;;;5026316;28;20236;-79
2022/06/07 03:05:47;;;;;;;1.07;0.97;;;12.50;99.90;;;;;;5034582;28;20257;-78
2022/06/07 03:08:15;;;;;;;1.53;1.07;;;12.50;99.90;;;;;;5017742;28;20237;-78
2022/06/07 03:10:45;;;;;;;1.00;0.90;;;12.50;99.90;;;;;;5028091;28;20709;-79
2022/06/07 03:13:12;;;;;;;0.90;0.80;;;12.50;99.90;;;;;;5028031;28;20385;-79
2022/06/07 03:15:39;;;;;;;1.20;0.90;;;12.50;99.90;;;;;;5030115;28;20233;-77
2022/06/07 03:18:08;;;;;;;1.53;1.10;;;12.60;99.90;;;;;;5024947;28;20226;-78
2022/06/07 03:20:41;;;;;;;0.93;0.87;;;12.60;99.90;;;;;;5031516;28;20270;-79
2022/06/07 03:23:08;;;;;;;1.07;0.83;;;12.60;99.90;;;;;;5030808;28;20220;-78
2022/06/07 03:25:35;;;;;;;1.53;0.77;;;12.60;99.90;;;;;;5026857;28;20218;-77
2022/06/07 03:28:06;;;;;;;0.80;0.80;;;12.60;99.90;;;;;;5036917;28;20296;-79
2022/06/07 03:30:33;;;;;;;0.70;0.70;;;12.60;99.90;;;;;;5038652;28;20226;-78
2022/06/07 03:33:01;;;;;;;2.23;0.70;;;12.60;99.90;;;;;;5036314;28;20252;-79
2022/06/07 03:35:31;;;;;;;1.63;0.90;;;12.60;99.90;;;;;;5031413;28;20314;-79
2022/06/07 03:38:00;;;;;;;0.93;0.60;;;12.60;99.90;;;;;;5034315;28;20703;-78
2022/06/07 03:40:44;;;;;;;0.63;0.63;;;12.60;99.90;;;;;;5031380;28;20249;-80
2022/06/07 03:43:15;;;;;;;1.60;0.87;;;12.60;99.90;;;;;;5035672;28;20290;-81
2022/06/07 03:45:42;;;;;;;1.33;0.70;;;12.70;99.90;;;;;;5029658;28;20252;-80
2022/06/07 03:48:13;;;;;;;0.60;0.60;;;12.60;99.90;;;;;;5036931;28;20236;-80
2022/06/07 03:50:42;;;;;;;0.67;0.60;;;12.70;99.90;;;;;;5032882;28;20265;-77
2022/06/07 03:53:11;;;;;;;1.50;0.67;;;12.70;99.90;;;;;;5032209;28;20226;-79
2022/06/07 03:55:42;;;;;;;0.70;0.70;;;12.70;99.90;;;;;;5030617;28;20221;-78
2022/06/07 03:58:12;;;;;;;0.80;0.70;;;12.70;99.90;;;;;;5031032;28;20235;-79
2022/06/07 04:00:40;;;;;;;0.70;0.70;;;12.70;99.90;;;;;;5033840;28;20249;-77
2022/06/07 04:03:09;;;;;;;0.70;0.70;;;12.80;99.90;;;;;;5031924;28;20224;-79
2022/06/07 04:05:40;;;;;;;1.57;0.80;;;12.80;99.90;;;;;;5027694;28;20648;-78
2022/06/07 04:08:11;;;;;;;1.27;0.70;;;12.80;99.90;;;;;;5032127;28;20224;-78
2022/06/07 04:10:59;;;;;;;1.53;0.83;;;12.80;99.90;;;;;;5032985;28;20272;-78
2022/06/07 04:13:33;;;;;;;1.00;0.70;;;12.80;99.90;;;;;;5027670;28;20779;-79
2022/06/07 04:16:06;;;;;;;1.23;0.90;;;12.90;99.90;;;;;;5032958;28;20814;-78
2022/06/07 04:18:35;;;;;;;0.80;0.80;;;12.90;99.90;;;;;;5030706;28;20529;-79
2022/06/07 04:21:03;;;;;;;0.90;0.90;;;12.90;99.90;;;;;;5031639;28;20280;-77
2022/06/07 04:23:32;;;;;;;0.80;0.80;;;12.90;99.90;;;;;;5046785;28;20241;-76
2022/06/07 04:26:06;;;;;;;0.70;0.70;;;12.90;99.90;;;;;;5024929;28;20272;-81
2022/06/07 04:28:34;;;;;;;1.13;0.90;;;12.90;99.90;;;;;;5029060;28;20607;-78
2022/06/07 04:31:01;;;;;;;1.37;0.83;;;12.90;99.90;;;;;;5037529;28;20700;-78
2022/06/07 04:33:30;;;;;;;0.80;0.70;;;12.90;99.90;;;;;;5022520;28;20222;-77
2022/06/07 04:35:59;;;;;;;1.20;1.00;;;12.90;99.90;;;;;;5028480;28;20304;-77
2022/06/07 04:38:29;;;;;;;1.30;1.13;;;13.00;99.90;;;;;;5025886;28;20649;-77
2022/06/07 04:40:58;;;;;;;1.83;1.40;;;12.90;99.90;;;;;;5026646;28;21548;-75
2022/06/07 04:43:25;;;;;;;1.30;1.20;;;13.00;99.90;;;;;;5019899;28;20230;-77
2022/06/07 04:46:03;;;;;;;1.57;1.10;;;13.00;99.90;;;;;;5025447;28;20266;-77
2022/06/07 04:48:30;;;;;;;1.93;1.30;;;13.00;99.90;;;;;;5037817;28;20231;-76
2022/06/07 04:51:05;;;;;;;2.83;1.27;;;13.00;99.90;;;;;;5023450;28;20228;-77
2022/06/07 04:53:37;;;;;;;4.87;1.20;;;13.00;99.90;;;;;;5023718;28;20248;-77
2022/06/07 04:56:09;;;;;;;2.80;1.40;;;13.00;99.90;;;;;;5031233;28;20317;-77
2022/06/07 04:58:36;;;;;;;1.30;1.20;;;13.10;99.90;;;;;;5023010;28;20238;-78
2022/06/07 05:01:12;;;;;;;1.53;1.43;;;13.10;99.90;;;;;;5026191;28;20714;-77
2022/06/07 05:03:39;;;;;;;1.90;1.80;;;13.10;99.90;;;;;;5021271;28;20313;-77
2022/06/07 05:06:19;;;;;;;1.87;1.77;;;13.10;99.90;;;;;;5024570;28;20320;-77
2022/06/07 05:08:51;;;;;;;3.67;2.10;;;13.10;99.90;;;;;;5025753;28;20236;-77
2022/06/07 05:11:19;;;;;;;1.83;1.73;;;13.10;99.90;;;;;;5025906;28;20236;-77
2022/06/07 05:13:46;;;;;;;2.13;1.80;;;13.20;99.90;;;;;;5021086;28;20302;-77
2022/06/07 05:16:13;;;;;;;2.30;2.10;;;13.20;99.90;;;;;;5024462;28;20258;-77
2022/06/07 05:18:41;;;;;;;3.40;2.00;;;13.20;99.90;;;;;;5026750;28;20314;-77
2022/06/07 05:21:12;;;;;;;2.53;2.13;;;13.20;99.90;;;;;;5030739;28;20313;-77
2022/06/07 05:23:40;;;;;;;3.23;2.00;;;13.20;99.90;;;;;;5025699;28;20222;-77
2022/06/07 05:26:13;;;;;;;5.07;2.20;;;13.20;99.90;;;;;;5023999;28;20226;-76
2022/06/07 05:28:43;;;;;;;2.37;2.17;;;13.20;99.90;;;;;;5013646;28;20798;-76
2022/06/07 05:31:12;;;;;;;2.37;2.17;;;13.20;99.90;;;;;;5022110;28;20219;-76
2022/06/07 05:33:45;;;;;;;2.50;2.30;;;13.20;99.90;;;;;;5023625;28;20556;-75
2022/06/07 05:36:11;;;;;;;3.67;2.40;;;13.20;99.90;;;;;;5024274;28;20259;-76
2022/06/07 05:38:38;;;;;;;3.03;2.60;;;13.20;99.90;;;;;;5025539;28;20223;-76
2022/06/07 05:41:14;;;;;;;4.83;2.57;;;13.20;99.90;;;;;;5025049;28;20241;-75
2022/06/07 05:43:43;;;;;;;3.83;2.73;;;13.20;99.90;;;;;;5025122;28;20366;-75
2022/06/07 05:46:10;;;;;;;3.20;2.60;;;13.20;99.90;;;;;;5030152;28;20770;-76
2022/06/07 05:48:49;;;;;;;3.00;2.67;;;13.20;99.90;;;;;;5023330;28;20894;-76
2022/06/07 05:51:22;;;;;;;3.90;3.17;;;13.20;99.90;;;;;;5025020;28;20229;-76
2022/06/07 05:53:53;;;;;;;5.03;3.20;;;13.20;99.90;;;;;;5022433;28;20219;-76
2022/06/07 05:56:22;;;;;;;4.30;3.33;;;13.20;99.90;;;;;;5022684;28;20735;-75
2022/06/07 05:58:50;;;;;;;4.03;3.10;;;13.20;99.90;;;;;;5023938;28;20858;-76
2022/06/07 06:01:17;;;;;;;4.40;3.53;;;13.20;99.90;;;;;;5018328;28;20391;-76
2022/06/07 06:03:48;;;;;;;4.67;3.60;;;13.10;99.90;;;;;;5023965;28;20231;-75
2022/06/07 06:06:17;;;;;;;5.87;4.10;;;13.10;99.90;;;;;;5024300;28;20239;-76
2022/06/07 06:11:36;;;;;;;5.03;4.27;;;13.10;99.90;;;;;;5023115;28;20226;-76
2022/06/07 06:14:24;;;;;;;4.73;4.23;;;13.10;99.90;;;;;;5018808;28;20715;-75
2022/06/07 06:16:58;;;;;;;5.43;4.43;;;13.10;99.90;;;;;;5025186;28;20336;-76
2022/06/07 06:19:33;;;;;;;6.40;4.93;;;13.10;99.90;;;;;;5025359;28;20678;-75
2022/06/07 06:22:01;;;;;;;6.67;4.77;;;13.20;99.90;;;;;;5015470;28;20559;-76
2022/06/07 06:24:30;;;;;;;5.87;4.53;;;13.20;99.90;;;;;;5028537;28;20672;-76
2022/06/07 06:26:58;;;;;;;7.67;4.77;;;13.20;99.90;;;;;;5025113;28;20742;-75
2022/06/07 06:29:30;;;;;;;6.33;5.40;;;13.30;99.90;;;;;;5023355;28;20229;-75
2022/06/07 06:31:57;;;;;;;7.57;5.20;;;13.30;99.90;;;;;;5022273;28;20259;-75
2022/06/07 06:34:29;;;;;;;6.37;5.50;;;13.40;99.90;;;;;;5022888;28;20659;-75
2022/06/07 06:36:57;;;;;;;7.93;5.73;;;13.40;99.90;;;;;;5029627;28;20220;-76
2022/06/07 06:39:26;;;;;;;6.10;5.30;;;13.50;99.90;;;;;;5023333;28;20300;-77
2022/06/07 06:41:55;;;;;;;6.93;5.60;;;13.60;99.90;;;;;;5025037;28;20336;-77
2022/06/07 06:44:35;;;;;;;6.83;5.80;;;13.50;99.90;;;;;;5022651;28;20234;-77
2022/06/07 06:47:02;;;;;;;8.93;6.07;;;13.60;99.90;;;;;;5017445;28;20284;-77
2022/06/07 06:49:30;;;;;;;7.73;5.80;;;13.60;99.90;;;;;;5022647;28;20234;-77
2022/06/07 06:51:58;;;;;;;7.20;6.27;;;13.70;99.90;;;;;;5022639;28;20311;-77
2022/06/07 06:54:33;;;;;;;7.23;6.13;;;13.70;99.90;;;;;;5023415;28;20692;-77
2022/06/07 06:57:06;;;;;;;7.10;6.40;;;13.70;99.90;;;;;;5021776;28;20260;-77
2022/06/07 06:59:35;;;;;;;9.87;6.67;;;13.80;99.90;;;;;;5028845;28;20246;-77
2022/06/07 07:02:03;;;;;;;9.47;6.80;;;13.80;99.90;;;;;;5023733;28;20226;-77
2022/06/07 07:04:50;;;;;;;6.67;5.97;;;13.90;99.90;;;;;;5024133;28;20218;-77
2022/06/07 07:07:18;;;;;;;6.83;5.87;;;13.90;99.90;;;;;;5026453;28;20592;-77
2022/06/07 07:09:46;;;;;;;10.20;6.03;;;13.90;99.90;;;;;;5026525;28;20286;-77
2022/06/07 07:12:14;;;;;;;8.23;6.03;;;13.90;99.90;;;;;;5019842;28;20344;-77
2022/06/07 07:14:56;;;;;;;6.80;5.57;;;14.00;99.90;;;;;;5028752;28;20223;-77
2022/06/07 07:17:28;;;;;;;8.20;5.93;;;14.10;99.90;;;;;;5023087;28;20224;-77
2022/06/07 07:19:58;;;;;;;10.50;6.03;;;14.10;99.90;;;;;;5026679;28;20235;-77
2022/06/07 07:22:25;;;;;;;7.37;5.50;;;14.10;99.90;;;;;;5024641;28;20242;-77
2022/06/07 07:24:54;;;;;;;7.23;5.73;;;14.20;99.90;;;;;;5020380;28;20216;-77
2022/06/07 07:27:23;;;;;;;7.60;6.13;;;14.20;99.90;;;;;;5028884;28;20243;-77
2022/06/07 07:29:50;;;;;;;11.00;5.83;;;14.30;99.90;;;;;;5027992;28;20224;-77
2022/06/07 07:32:24;;;;;;;7.50;5.13;;;14.40;99.90;;;;;;5026937;28;20214;-77
2022/06/07 07:34:54;;;;;;;6.80;4.50;;;14.50;99.90;;;;;;5025586;28;20238;-77
2022/06/07 07:37:21;;;;;;;8.00;4.43;;;14.60;99.90;;;;;;5025934;28;20233;-77
2022/06/07 07:39:54;;;;;;;5.37;4.33;;;14.70;99.90;;;;;;5026833;28;20301;-77
2022/06/07 07:42:24;;;;;;;6.10;3.97;;;14.90;99.90;;;;;;5027639;28;20238;-77
2022/06/07 07:45:01;;;;;;;5.50;4.00;;;15.00;99.90;;;;;;5043133;28;20217;-76
2022/06/07 07:47:30;;;;;;;6.23;4.20;;;15.00;99.90;;;;;;5026423;28;20702;-77
2022/06/07 07:49:57;;;;;;;5.67;4.37;;;15.20;99.90;;;;;;5027029;28;20309;-77
2022/06/07 07:52:24;;;;;;;6.30;4.30;;;15.20;99.90;;;;;;5026580;28;20239;-77
2022/06/07 07:54:58;;;;;;;5.43;4.23;;;15.20;99.90;;;;;;5040970;28;20238;-77
2022/06/07 07:57:26;;;;;;;5.93;4.07;;;15.30;99.90;;;;;;5027356;28;20228;-77
2022/06/07 07:59:54;;;;;;;7.13;4.50;;;15.30;99.90;;;;;;5026598;28;20254;-77
2022/06/07 08:02:23;;;;;;;5.37;4.07;;;15.30;99.90;;;;;;5027836;28;20242;-77
2022/06/07 08:05:04;;;;;;;7.40;4.03;;;15.30;99.90;;;;;;5027126;28;20223;-77
2022/06/07 08:07:33;;;;;;;5.70;3.73;;;15.30;99.90;;;;;;5023066;28;20646;-77
2022/06/07 08:10:02;;;;;;;4.33;3.60;;;15.30;99.90;;;;;;5025468;28;20226;-77
2022/06/07 08:12:29;;;;;;;4.40;3.60;;;15.30;99.90;;;;;;5026893;28;20618;-77
2022/06/07 08:14:57;;;;;;;7.47;3.90;;;15.30;99.90;;;;;;5028070;28;20249;-77
2022/06/07 08:17:24;;;;;;;3.63;3.20;;;15.40;99.90;;;;;;5023965;28;20316;-77
2022/06/07 08:19:51;;;;;;;4.60;3.40;;;15.50;99.90;;;;;;5027409;28;20242;-77
2022/06/07 08:22:19;;;;;;;4.23;2.70;;;15.50;99.90;;;;;;5027557;28;20669;-77
2022/06/07 08:24:46;;;;;;;3.23;2.60;;;15.60;99.90;;;;;;5025033;28;20753;-77
2022/06/07 08:27:13;;;;;;;5.83;2.57;;;15.60;99.90;;;;;;5021093;28;20319;-77
2022/06/07 08:29:40;;;;;;;2.53;2.20;;;15.70;99.90;;;;;;5031903;28;20234;-77
2022/06/07 08:32:07;;;;;;;6.03;2.73;;;15.70;99.90;;;;;;5028108;28;20259;-77
2022/06/07 08:37:37;;;;;;;4.87;2.30;;;15.90;99.90;;;;;;5032026;28;20727;-78
2022/06/07 08:40:09;;;;;;;4.37;2.40;;;15.90;99.90;;;;;;5035021;28;20247;-77
2022/06/07 08:42:39;;;;;;;5.27;2.60;;;15.90;99.90;;;;;;5027194;28;20729;-77
2022/06/07 08:45:11;;;;;;;4.27;2.60;;;16.00;99.90;;;;;;5026840;28;20228;-77
2022/06/07 08:47:42;;;;;;;5.07;2.70;;;16.10;99.80;;;;;;5026701;28;20573;-77
2022/06/07 08:50:18;;;;;;;6.10;3.40;;;16.20;99.80;;;;;;5027394;28;20714;-77
2022/06/07 08:52:48;;;;;;;3.90;2.80;;;16.30;99.60;;;;;;5026867;28;20221;-77
2022/06/07 08:55:19;;;;;;;4.10;2.77;;;16.30;99.50;;;;;;5028444;28;20223;-77
2022/06/07 08:57:54;;;;;;;6.20;3.00;;;16.40;99.50;;;;;;5027665;28;20362;-77
2022/06/07 09:00:24;;;;;;;4.13;3.60;;;16.50;99.40;;;;;;5026938;28;20801;-77
2022/06/07 09:03:20;;;;;;;4.50;2.80;;;16.50;99.20;;;;;;5027548;28;20238;-77
2022/06/07 09:05:52;;;;;;;6.67;3.20;;;16.60;99.00;;;;;;5035423;28;20225;-77
2022/06/07 09:08:20;;;;;;;5.97;3.20;;;16.70;99.10;;;;;;5033699;28;20229;-77
2022/06/07 09:13:35;;;;;;;3.83;3.40;;;16.80;98.90;;;;;;5022185;28;20812;-79
2022/06/07 09:16:04;;;;;;;3.83;2.80;;;16.90;98.90;;;;;;5028812;28;20224;-79
2022/06/07 09:18:33;;;;;;;3.33;2.73;;;17.00;98.80;;;;;;5025874;28;20255;-78
2022/06/07 09:21:06;;;;;;;3.97;2.83;;;17.00;98.80;;;;;;5021658;28;20228;-79
2022/06/07 09:23:40;;;;;;;3.80;2.77;;;17.10;98.70;;;;;;5020515;28;20239;-79
2022/06/07 09:26:27;;;;;;;5.13;3.03;;;17.10;98.40;;;;;;5022051;28;20227;-78
2022/06/07 09:29:07;;;;;;;3.10;2.73;;;17.10;98.20;;;;;;5027118;28;20263;-79
2022/06/07 09:31:38;;;;;;;4.13;2.90;;;17.10;98.20;;;;;;5024071;28;20292;-78
2022/06/07 09:34:07;;;;;;;4.17;2.57;;;17.10;98.10;;;;;;5028557;28;20220;-79
2022/06/07 09:36:37;;;;;;;4.53;2.57;;;17.00;98.00;;;;;;5024503;28;20722;-79
2022/06/07 09:39:16;;;;;;;2.50;2.30;;;17.00;98.10;;;;;;5019897;28;20231;-79
2022/06/07 09:41:46;;;;;;;4.20;2.50;;;17.00;98.00;;;;;;5021295;28;20232;-79
2022/06/07 09:44:21;;;;;;;4.57;3.13;;;17.00;98.00;;;;;;5030208;28;20240;-79
2022/06/07 09:46:50;;;;;;;5.10;2.87;;;16.90;97.70;;;;;;5010779;28;20216;-78
2022/06/07 09:49:31;;;;;;;4.37;3.10;;;16.90;97.70;;;;;;5025190;28;20224;-79
2022/06/07 09:52:06;;;;;;;4.07;3.00;;;16.80;97.80;;;;;;5030701;28;20213;-79
2022/06/07 09:54:41;;;;;;;3.30;2.70;;;16.70;97.80;;;;;;5019148;28;20618;-78
2022/06/07 09:57:16;;;;;;;3.10;2.20;;;16.70;98.10;;;;;;5021349;28;20262;-79
2022/06/07 09:59:55;;;;;;;3.27;2.73;;;16.70;98.10;;;;;;5022816;28;20234;-81
2022/06/07 10:02:46;;;;;;;3.90;2.97;;;16.80;98.30;;;;;;5025182;28;20307;-79
2022/06/07 10:05:21;;;;;;;3.90;2.80;;;17.00;97.80;;;;;;5011115;28;20225;-79
2022/06/07 10:07:54;;;;;;;3.07;2.73;;;17.20;97.40;;;;;;5026159;28;20216;-79
2022/06/07 10:10:29;;;;;;;4.67;3.30;;;17.40;97.00;;;;;;5027391;28;20224;-79
2022/06/07 10:13:10;;;;;;;5.03;3.03;;;17.50;96.80;;;;;;5022530;28;20219;-79
2022/06/07 10:15:40;;;;;;;4.67;2.93;;;17.70;96.80;;;;;;5021370;28;20224;-79
2022/06/07 10:18:20;;;;;;;5.57;3.28;;;17.90;97.10;;;;;;5019247;28;20221;-79
2022/06/07 10:21:08;;;;;;;3.00;2.70;;;18.30;96.90;;;;;;5022211;28;20224;-78
2022/06/07 10:23:52;;;;;;;6.05;3.47;;;18.80;96.50;;;;;;5020709;28;20312;-79
2022/06/07 10:26:32;;;;;;;4.72;3.25;;;19.30;94.90;;;;;;5015303;28;20233;-80
2022/06/07 10:29:13;;;;;;;3.80;3.05;;;19.80;94.30;;;;;;5024940;28;20538;-79
2022/06/07 10:31:47;;;;;;;3.20;2.58;;;20.40;94.10;;;;;;5026521;28;20635;-79
2022/06/07 10:34:21;;;;;;;2.92;2.60;;;20.90;93.50;;;;;;5027158;28;20220;-79
2022/06/07 10:36:56;;;;;;;4.32;3.60;;;21.20;92.10;;;;;;5018312;28;20877;-79
2022/06/07 10:39:38;;;;;;;5.00;3.08;;;21.40;90.90;;;;;;5024048;28;20232;-79
2022/06/07 10:42:20;;;;;;;3.60;3.15;;;21.50;90.20;;;;;;5037534;28;20228;-79
2022/06/07 10:44:49;;;;;;;5.20;2.80;;;21.70;89.30;;;;;;5016942;28;20233;-78
2022/06/07 10:47:24;;;;;;;3.25;2.88;;;21.60;89.70;;;;;;5031061;28;20225;-79
2022/06/07 10:49:57;;;;;;;4.72;3.50;;;21.60;89.80;;;;;;5026769;28;20592;-78
2022/06/07 10:52:37;;;;;;;5.10;3.38;;;21.50;88.50;;;;;;5035641;28;20736;-78
2022/06/07 10:55:22;;;;;;;3.95;3.50;;;21.30;87.90;;;;;;5032668;28;20234;-78
2022/06/07 10:58:00;;;;;;;5.90;3.50;;;21.10;86.90;;;;;;5015831;28;20228;-79
2022/06/07 11:00:34;;;;;;;4.80;3.60;;;20.80;85.70;;;;;;5022491;28;20224;-78
2022/06/07 11:03:11;;;;;;;4.95;3.10;;;20.50;87.40;;;;;;5025542;28;20913;-78
2022/06/07 11:11:18;;;;;;;5.10;3.53;;;20.10;89.10;;;;;;5025798;28;20743;-80
2022/06/07 11:14:05;;;;;;;4.22;3.53;;;20.00;89.10;;;;;;5017100;28;20304;-79
2022/06/07 11:16:40;;;;;;;4.53;4.10;;;19.80;89.70;;;;;;5031626;28;20234;-79
2022/06/07 11:19:09;;;;;;;5.68;4.32;;;19.70;89.80;;;;;;5028844;28;20355;-79
2022/06/07 11:21:40;;;;;;;4.15;3.42;;;19.60;89.40;;;;;;5024615;28;20236;-79
2022/06/07 11:24:17;;;;;;;4.97;3.83;;;19.50;90.30;;;;;;5018090;28;20221;-79
2022/06/07 11:27:14;;;;;;;5.80;4.10;;;19.30;90.50;;;;;;5020849;28;20232;-79
2022/06/07 11:29:42;;;;;;;4.22;3.80;;;19.10;90.30;;;;;;5017973;28;20225;-79
2022/06/07 11:32:42;;;;;;;4.05;3.58;;;19.00;90.80;;;;;;5024902;28;20574;-79
2022/06/07 11:35:48;;;;;;;5.43;4.23;;;18.90;90.50;;;;;;5013599;28;20734;-80
2022/06/07 11:38:24;;;;;;;4.97;4.10;;;18.70;90.30;;;;;;5026123;28;20246;-79
2022/06/07 11:41:36;;;;;;;5.60;4.73;;;18.70;90.70;;;;;;5025247;28;20644;-80
2022/06/07 11:43:54;;;;;;;6.47;5.30;;;18.60;90.80;;;;;;5015255;28;20638;-79
2022/06/07 11:46:28;;;;;;;9.70;5.63;;;18.50;90.70;;;;;;5027362;28;20248;-79
2022/06/07 11:48:55;;;;;;;5.83;5.23;;;18.40;90.90;;;;;;5022075;28;20997;-80
2022/06/07 11:51:23;;;;;;;6.03;5.40;;;18.30;91.00;;;;;;5022563;28;20298;-79
2022/06/07 11:54:01;;;;;;;6.00;5.40;;;18.20;91.10;;;;;;5023277;28;20234;-79
2022/06/07 11:56:41;;;;;;;5.68;5.07;;;18.10;91.30;;;;;;5028741;28;20278;-79
2022/06/07 11:59:34;;;;;;;5.90;5.30;;;18.00;91.60;;;;;;5027360;28;20220;-79
2022/06/07 12:02:26;;;;;;;6.00;5.30;;;17.90;91.40;;;;;;5025798;28;20229;-79
2022/06/07 12:05:06;;;;;;;6.68;4.85;;;17.90;91.60;;;;;;5027931;28;20779;-80
2022/06/07 12:07:46;;;;;;;6.07;5.37;;;17.90;91.90;;;;;;5017099;28;20225;-80
2022/06/07 12:10:25;;;;;;;6.53;5.90;;;17.90;91.90;;;;;;5021559;28;20278;-80
2022/06/07 12:12:55;;;;;;;7.17;6.47;;;18.00;91.80;;;;;;5022180;28;20244;-79
2022/06/07 12:15:25;;;;;;;8.63;5.93;;;18.00;91.80;;;;;;5023731;28;20238;-79
2022/06/07 12:17:59;;;;;;;6.20;5.57;;;18.00;91.70;;;;;;5028763;28;20260;-79
2022/06/07 12:20:30;;;;;;;5.90;5.33;;;18.10;91.50;;;;;;5024747;28;20224;-80
2022/06/07 12:23:03;;;;;;;6.33;5.63;;;18.10;91.70;;;;;;5018617;28;20225;-80
2022/06/07 12:25:35;;;;;;;7.93;6.30;;;18.00;91.50;;;;;;5020637;28;20311;-79
2022/06/07 12:28:02;;;;;;;6.10;5.50;;;18.00;91.80;;;;;;5030466;28;20225;-79
2022/06/07 12:30:31;;;;;;;6.63;5.93;;;18.10;92.00;;;;;;5010438;28;20232;-79
2022/06/07 12:33:21;;;;;;;6.53;5.77;;;18.10;92.00;;;;;;5041245;28;20247;-80
2022/06/07 12:35:55;;;;;;;6.95;5.97;;;18.30;91.80;;;;;;5019284;28;20243;-78
2022/06/07 12:38:22;;;;;;;9.35;7.15;;;18.50;91.60;;;;;;5024781;28;20723;-79
2022/06/07 12:40:51;;;;;;;8.90;6.18;;;18.70;91.50;;;;;;5027041;28;20213;-79
2022/06/07 12:43:25;;;;;;;7.70;6.70;;;18.80;91.50;;;;;;5026340;28;20243;-79
2022/06/07 12:45:59;;;;;;;7.07;6.28;;;18.90;91.00;;;;;;5022082;28;20229;-80
2022/06/07 12:48:28;;;;;;;8.23;7.17;;;18.90;91.00;;;;;;5024310;28;20280;-79
2022/06/07 12:50:55;;;;;;;9.27;6.57;;;18.90;91.00;;;;;;5026331;28;20280;-80
2022/06/07 12:53:24;;;;;;;11.05;6.75;;;19.00;91.00;;;;;;5022450;28;20225;-79
2022/06/07 12:55:58;;;;;;;8.47;7.50;;;19.00;91.30;;;;;;5025748;28;20327;-80
2022/06/07 12:58:28;;;;;;;7.78;6.90;;;19.00;90.80;;;;;;5019642;28;20251;-79
2022/06/07 13:00:55;;;;;;;7.72;6.65;;;19.00;90.80;;;;;;5024479;28;20236;-79
2022/06/07 13:03:28;;;;;;;8.55;7.65;;;18.90;90.70;;;;;;5021580;28;20224;-79
2022/06/07 13:05:59;;;;;;;7.50;6.80;;;18.90;90.70;;;;;;5015161;28;20240;-79
2022/06/07 13:08:32;;;;;;;9.87;7.00;;;18.70;91.00;;;;;;5019798;28;20232;-79
2022/06/07 13:11:03;;;;;;;9.57;6.87;;;18.60;91.20;;;;;;5025223;28;20391;-78
2022/06/07 13:13:35;;;;;;;7.53;6.75;;;18.50;91.30;;;;;;5021628;28;20224;-78
2022/06/07 13:16:16;;;;;;;9.50;7.15;;;18.40;91.40;;;;;;5025035;28;20316;-78
2022/06/07 13:18:57;;;;;;;8.23;7.20;;;18.30;91.50;;;;;;5028169;28;20228;-78
2022/06/07 13:21:30;;;;;;;7.87;6.50;;;18.20;91.80;;;;;;5027339;28;20234;-78
2022/06/07 13:23:59;;;;;;;8.40;7.05;;;18.20;91.80;;;;;;5024247;28;20235;-78
2022/06/07 13:26:29;;;;;;;8.27;7.35;;;18.20;92.00;;;;;;5020286;28;20241;-78
2022/06/07 13:29:09;;;;;;;8.07;7.17;;;18.30;92.00;;;;;;5031359;28;20244;-78